MDT,Max TemperatureF,Mean TemperatureF,Min TemperatureF,Max Dew PointF,MeanDew PointF,Min DewpointF,Max Humidity, Mean Humidity, Min Humidity, Max Sea Level PressureIn, Mean Sea Level PressureIn, Min Sea Level PressureIn, Max VisibilityMiles, Mean VisibilityMiles, Min VisibilityMiles, Max Wind SpeedMPH, Mean Wind SpeedMPH, Max Gust SpeedMPH,PrecipitationIn, CloudCover, Events, WindDirDegrees
2013-8-1,85,74,63,55,50,44,53,43,33,30.18,30.00,29.91,10,10,10,21,6,29,0.03,4,Rain-Thunderstorm,71
2013-8-2,89,75,60,55,51,46,78,51,24,30.02,29.95,29.86,10,10,10,31,7,38,T,3,,341
2013-8-3,88,73,57,56,50,43,84,53,22,30.25,30.01,29.91,10,10,10,23,5,31,0.03,3,Thunderstorm,101
2013-8-4,90,71,52,57,47,43,73,47,21,30.24,30.03,29.94,10,10,10,22,6,28,0.01,2,Thunderstorm,56
2013-8-5,88,74,59,57,52,43,84,53,21,30.22,30.01,29.90,10,10,10,20,5,25,0.01,3,Rain-Thunderstorm,87
2013-8-6,85,72,58,53,50,46,78,53,28,30.18,29.98,29.90,10,10,10,20,6,28,T,3,Rain-Thunderstorm,69
2013-8-7,75,67,59,60,55,52,93,71,49,30.19,30.03,29.93,10,8,1,14,4,18,0.42,6,Rain-Thunderstorm,87
2013-8-8,80,66,52,57,52,46,93,63,32,30.04,29.98,29.91,10,10,10,22,6,29,0.03,2,Rain,58
2013-8-9,86,67,47,47,42,34,93,55,17,30.06,30.01,29.96,10,10,10,16,5,22,0.00,0,,151
2013-8-10,81,67,52,53,47,43,72,51,30,30.39,30.17,30.01,10,9,2,47,6,62,0.16,2,Rain-Thunderstorm,210
2013-8-11,84,65,45,50,44,37,92,56,20,30.22,30.10,29.99,10,10,10,24,5,31,0.00,0,,100
2013-8-12,86,70,53,48,43,37,83,51,19,30.08,30.01,29.95,10,10,10,17,5,22,0.00,1,,3
2013-8-13,88,69,49,47,41,25,86,48,10,30.09,30.03,29.98,10,10,10,17,5,25,T,0,,38
2013-8-14,90,68,46,41,36,27,76,43,10,30.21,30.02,29.95,10,10,10,22,6,28,0.00,0,,48
2013-8-15,92,69,46,39,33,16,65,36,6,30.08,30.01,29.96,10,10,10,15,5,23,0.00,0,,166
2013-8-16,93,71,48,44,38,28,61,36,10,30.09,30.01,29.95,10,10,10,16,5,23,0.00,0,,101
2013-8-17,89,71,53,49,42,38,55,37,18,30.07,30.01,29.97,10,10,10,24,7,31,0.00,0,,3
2013-8-18,89,73,57,49,46,40,64,41,18,30.09,30.01,29.91,10,10,10,14,5,20,0.00,1,,69
2013-8-19,93,74,55,53,47,43,72,45,18,30.16,29.98,29.91,10,10,10,24,5,30,T,1,Thunderstorm,83
2013-8-20,92,74,55,50,48,43,77,50,22,30.16,29.98,29.88,10,10,10,24,5,33,0.00,0,Thunderstorm,85
2013-8-21,93,74,55,59,49,42,90,54,18,30.17,30.02,29.91,10,10,3,23,7,30,0.31,3,Rain-Thunderstorm,55
2013-8-22,86,71,55,59,53,48,93,61,29,30.12,30.01,29.91,10,10,10,16,6,20,0.02,1,,190
2013-8-23,89,72,54,51,46,39,83,51,19,30.20,29.93,29.82,10,10,10,21,7,37,T,2,Thunderstorm,162
2013-8-24,81,70,59,58,51,48,80,58,35,30.22,29.99,29.91,10,10,10,16,4,38,0.12,5,Rain-Thunderstorm,237
2013-8-25,75,67,58,64,58,55,93,75,57,30.37,30.17,30.05,10,7,0,20,4,25,1.82,7,Fog-Rain-Thunderstorm,161
2013-8-26,81,70,59,61,58,56,93,68,42,30.38,30.15,29.99,10,9,2,15,4,20,0.26,5,Rain-Thunderstorm,148
2013-8-27,84,71,57,61,57,52,93,65,36,30.29,30.04,29.94,10,10,7,17,4,21,0.00,2,,38
2013-8-28,87,71,54,56,52,43,93,58,23,30.04,30.00,29.94,10,10,9,9,4,16,0.00,0,,78
2013-8-29,88,72,55,57,52,50,86,58,29,30.27,30.08,30.00,10,10,10,17,3,22,0.00,1,Thunderstorm,67
2013-8-30,90,75,60,62,56,49,84,56,27,30.29,30.07,29.91,10,8,1,25,5,31,0.63,2,Rain-Thunderstorm,70
2013-8-31,87,72,57,60,56,53,93,64,34,30.06,29.96,29.88,10,10,10,22,4,32,0.00,0,,73